createdAt,value
2016-12-13T00:00:04.859Z,49
2016-12-13T00:01:04.839Z,49.1
2016-12-13T00:02:04.824Z,48.9
2016-12-13T00:03:04.809Z,49
2016-12-13T00:04:04.473Z,49.29
2016-12-13T00:05:04.779Z,49.27
2016-12-13T00:06:04.757Z,49.36
2016-12-13T00:07:04.742Z,49.17
2016-12-13T00:08:04.725Z,49
2016-12-13T00:09:04.395Z,49.17
2016-12-13T00:10:04.695Z,49.27
2016-12-13T00:11:04.686Z,49.27
2016-12-13T00:12:04.662Z,49.29
2016-12-13T00:13:04.329Z,49.19
2016-12-13T00:14:04.310Z,49.1
2016-12-13T00:15:04.613Z,48.81
2016-12-13T00:16:04.597Z,49.1
2016-12-13T00:17:04.582Z,49
2016-12-13T00:18:04.569Z,48.81
2016-12-13T00:19:04.232Z,48.81
2016-12-13T00:20:04.539Z,49
2016-12-13T00:21:04.516Z,48.71
2016-12-13T00:22:04.506Z,48.71
2016-12-13T00:23:04.485Z,48.9
2016-12-13T00:24:04.466Z,48.81
2016-12-13T00:25:04.453Z,48.9
2016-12-13T00:26:04.438Z,48.9
2016-12-13T00:27:04.418Z,48.61
2016-12-13T00:28:04.405Z,48.9
2016-12-13T00:29:04.073Z,48.71
2016-12-13T00:30:04.068Z,48.61
2016-12-13T00:31:04.356Z,48.81
2016-12-13T00:32:04.338Z,48.43
2016-12-13T00:33:04.323Z,48.52
2016-12-13T00:34:04.000Z,48.33
2016-12-13T00:35:04.295Z,48.52
2016-12-13T00:36:04.276Z,48.43
2016-12-13T00:37:03.949Z,48.71
2016-12-13T00:38:04.245Z,48.71
2016-12-13T00:39:03.911Z,48.9
2016-12-13T00:40:04.213Z,48.81
2016-12-13T00:41:04.192Z,49
2016-12-13T00:42:04.179Z,49
2016-12-13T00:43:03.847Z,48.9
2016-12-13T00:44:04.150Z,48.97
2016-12-13T00:45:03.815Z,48.9
2016-12-13T00:46:03.797Z,49.1
2016-12-13T00:47:03.780Z,48.97
2016-12-13T00:48:04.081Z,49.1
2016-12-13T00:49:04.062Z,49.1
2016-12-13T00:50:04.053Z,49
2016-12-13T00:51:04.034Z,49.07
2016-12-13T00:52:04.016Z,49.17
2016-12-13T00:53:03.683Z,49.27
2016-12-13T00:54:03.982Z,49.27
2016-12-13T00:55:03.969Z,49.07
2016-12-13T00:56:03.637Z,49.07
2016-12-13T00:57:03.934Z,49.17
2016-12-13T00:58:03.919Z,49.07
2016-12-13T00:59:03.909Z,49.17
2016-12-13T01:00:03.889Z,49.17
2016-12-13T01:01:03.556Z,49.36
2016-12-13T01:02:03.854Z,49.27
2016-12-13T01:03:03.835Z,49.27
2016-12-13T01:04:03.819Z,49.17
2016-12-13T01:05:03.803Z,49.07
2016-12-13T01:06:03.789Z,49.07
2016-12-13T01:07:03.769Z,49.36
2016-12-13T01:08:03.439Z,49.46
2016-12-13T01:09:03.740Z,49.65
2016-12-13T01:10:03.409Z,49.07
2016-12-13T01:11:03.708Z,49.07
2016-12-13T01:12:03.377Z,49.36
2016-12-13T01:13:03.380Z,49.36
2016-12-13T01:14:03.340Z,49.46
2016-12-13T01:15:03.640Z,49.27
2016-12-13T01:16:03.636Z,49.17
2016-12-13T01:17:03.616Z,49.55
2016-12-13T01:18:03.287Z,49.36
2016-12-13T01:19:03.575Z,49.17
2016-12-13T01:20:03.559Z,49.46
2016-12-13T01:21:03.547Z,49.55
2016-12-13T01:22:03.214Z,49.46
2016-12-13T01:23:03.513Z,49.46
2016-12-13T01:24:03.496Z,49.36
2016-12-13T01:25:03.481Z,49.84
2016-12-13T01:26:03.468Z,49.46
2016-12-13T01:27:03.448Z,49.46
2016-12-13T01:28:03.433Z,49.65
2016-12-13T01:29:03.416Z,49.74
2016-12-13T01:30:03.397Z,49.74
2016-12-13T01:31:03.379Z,49.94
2016-12-13T01:32:03.367Z,49.74
2016-12-13T01:33:03.351Z,49.55
2016-12-13T01:34:03.340Z,49.84
2016-12-13T01:35:03.003Z,49.74
2016-12-13T01:36:03.299Z,49.74
2016-12-13T01:37:03.284Z,49.74
2016-12-13T01:38:03.267Z,50.04
2016-12-13T01:39:02.938Z,49.74
2016-12-13T01:40:03.234Z,49.55
2016-12-13T01:41:03.217Z,50.04
2016-12-13T01:42:02.892Z,49.94
2016-12-13T01:43:02.873Z,50.04
2016-12-13T01:44:03.170Z,50.04
2016-12-13T01:45:03.154Z,49.94
2016-12-13T01:46:03.138Z,49.74
2016-12-13T01:47:03.120Z,49.84
2016-12-13T01:48:03.103Z,49.84
2016-12-13T01:49:03.092Z,49.84
2016-12-13T01:50:03.075Z,49.94
2016-12-13T01:51:03.059Z,50.04
2016-12-13T01:52:02.726Z,50.04
2016-12-13T01:53:03.021Z,49.55
2016-12-13T01:54:03.017Z,50.13
2016-12-13T01:55:02.991Z,49.94
2016-12-13T01:56:02.977Z,49.74
2016-12-13T01:57:02.958Z,50.04
2016-12-13T01:58:02.941Z,50.23
2016-12-13T01:59:02.922Z,49.94
2016-12-13T02:00:02.909Z,50.23
2016-12-13T02:01:02.895Z,50.23
2016-12-13T02:02:02.563Z,50.13
2016-12-13T02:03:02.864Z,50.04
2016-12-13T02:04:02.528Z,50.13
2016-12-13T02:05:02.833Z,50.23
2016-12-13T02:06:02.809Z,50.13
2016-12-13T02:07:02.794Z,50.13
2016-12-13T02:08:02.463Z,50.32
2016-12-13T02:09:02.445Z,50.23
2016-12-13T02:10:02.747Z,49.94
2016-12-13T02:11:02.733Z,50.23
2016-12-13T02:12:02.716Z,50.32
2016-12-13T02:13:02.733Z,49.94
2016-12-13T02:14:02.679Z,50.23
2016-12-13T02:15:02.664Z,50.13
2016-12-13T02:16:02.647Z,50.23
2016-12-13T02:17:02.630Z,50.2
2016-12-13T02:18:02.614Z,50.23
2016-12-13T02:19:02.594Z,50.32
2016-12-13T02:20:02.265Z,50.23
2016-12-13T02:21:02.249Z,50.59
2016-12-13T02:22:02.550Z,50.42
2016-12-13T02:23:02.533Z,50.32
2016-12-13T02:24:02.517Z,50.61
2016-12-13T02:25:02.504Z,50.51
2016-12-13T02:26:02.171Z,50.32
2016-12-13T02:27:02.466Z,50.71
2016-12-13T02:28:02.453Z,50.42
2016-12-13T02:29:02.433Z,50.32
2016-12-13T02:30:02.420Z,50.32
2016-12-13T02:31:02.086Z,50.23
2016-12-13T02:32:02.388Z,50.51
2016-12-13T02:33:02.375Z,50.32
2016-12-13T02:34:02.035Z,50.4
2016-12-13T02:35:02.334Z,50.42
2016-12-13T02:36:02.319Z,50.3
2016-12-13T02:37:02.301Z,50.42
2016-12-13T02:38:02.284Z,50.4
2016-12-13T02:39:02.267Z,50.42
2016-12-13T02:40:02.254Z,50.4
2016-12-13T02:41:01.923Z,50.68
2016-12-13T02:42:02.219Z,50.32
2016-12-13T02:43:02.206Z,50.51
2016-12-13T02:44:02.187Z,50.42
2016-12-13T02:45:02.170Z,50.81
2016-12-13T02:46:02.155Z,50.4
2016-12-13T02:47:02.133Z,50.42
2016-12-13T02:48:02.120Z,50.49
2016-12-13T02:49:02.105Z,50.61
2016-12-13T02:50:02.088Z,50.42
2016-12-13T02:51:02.071Z,50.51
2016-12-13T02:52:02.054Z,50.71
2016-12-13T02:53:02.066Z,50.49
2016-12-13T02:54:02.029Z,50.68
2016-12-13T02:55:01.698Z,50.49
2016-12-13T02:56:01.991Z,50.4
2016-12-13T02:57:01.969Z,50.61
2016-12-13T02:58:01.956Z,50.59
2016-12-13T02:59:01.940Z,50.4
2016-12-13T03:00:01.924Z,50.49
2016-12-13T03:01:01.905Z,50.49
2016-12-13T03:02:01.890Z,50.87
2016-12-13T03:03:01.560Z,50.49
2016-12-13T03:04:01.858Z,50.4
2016-12-13T03:05:01.842Z,50.49
2016-12-13T03:06:01.824Z,50.78
2016-12-13T03:07:01.491Z,50.59
2016-12-13T03:08:01.476Z,50.4
2016-12-13T03:09:01.775Z,50.4
2016-12-13T03:10:01.760Z,50.4
2016-12-13T03:11:01.458Z,50.2
2016-12-13T03:12:01.413Z,50.2
2016-12-13T03:13:01.710Z,50.4
2016-12-13T03:14:01.379Z,50.1
2016-12-13T03:15:01.682Z,50.2
2016-12-13T03:16:01.344Z,50.3
2016-12-13T03:17:01.647Z,50.4
2016-12-13T03:18:01.632Z,50.3
2016-12-13T03:19:01.293Z,50.4
2016-12-13T03:20:01.593Z,50.49
2016-12-13T03:21:01.580Z,50.4
2016-12-13T03:22:01.248Z,50.4
2016-12-13T03:23:01.548Z,50.4
2016-12-13T03:24:01.527Z,50.4
2016-12-13T03:25:01.511Z,50.49
2016-12-13T03:26:01.182Z,50.87
2016-12-13T03:27:01.477Z,50.49
2016-12-13T03:28:01.468Z,50.4
2016-12-13T03:29:01.444Z,50.59
2016-12-13T03:30:01.431Z,50.49
2016-12-13T03:31:01.414Z,50.49
2016-12-13T03:32:01.395Z,50.59
2016-12-13T03:33:01.381Z,50.59
2016-12-13T03:34:01.368Z,50.59
2016-12-13T03:35:01.349Z,50.4
2016-12-13T03:36:01.332Z,50.59
2016-12-13T03:37:00.998Z,50.49
2016-12-13T03:38:01.298Z,50.49
2016-12-13T03:39:01.284Z,50.59
2016-12-13T03:40:01.263Z,50.68
2016-12-13T03:41:01.250Z,50.68
2016-12-13T03:42:01.231Z,50.68
2016-12-13T03:43:01.215Z,50.59
2016-12-13T03:44:00.880Z,50.59
2016-12-13T03:45:01.177Z,50.59
2016-12-13T03:46:01.165Z,50.78
2016-12-13T03:47:01.148Z,50.78
2016-12-13T03:48:00.817Z,50.59
2016-12-13T03:49:01.116Z,50.78
2016-12-13T03:50:01.104Z,50.87
2016-12-13T03:51:01.082Z,50.59
2016-12-13T03:52:01.068Z,50.68
2016-12-13T03:53:01.049Z,50.49
2016-12-13T03:54:01.031Z,50.68
2016-12-13T03:55:01.014Z,50.49
2016-12-13T03:56:01.034Z,50.78
2016-12-13T03:57:00.664Z,50.49
2016-12-13T03:58:00.965Z,50.4
2016-12-13T03:59:00.949Z,50.49
2016-12-13T04:00:00.930Z,50.49
2016-12-13T04:01:00.921Z,50.68
2016-12-13T04:02:00.897Z,50.59
2016-12-13T04:03:00.885Z,50.49
2016-12-13T04:04:00.867Z,50.87
2016-12-13T04:05:00.848Z,50.78
2016-12-13T04:06:00.832Z,50.78
2016-12-13T04:07:00.815Z,50.59
2016-12-13T04:08:00.806Z,50.49
2016-12-13T04:09:00.471Z,50.78
2016-12-13T04:10:00.765Z,50.49
2016-12-13T04:11:00.748Z,50.4
2016-12-13T04:12:00.421Z,50.4
2016-12-13T04:13:00.715Z,50.87
2016-12-13T04:14:00.700Z,50.68
2016-12-13T04:15:00.683Z,50.87
2016-12-13T04:16:00.717Z,50.87
2016-12-13T04:17:00.650Z,50.49
2016-12-13T04:18:00.634Z,50.87
2016-12-13T04:19:00.298Z,50.78
2016-12-13T04:20:00.599Z,50.68
2016-12-13T04:21:00.587Z,50.87
2016-12-13T04:22:00.566Z,50.68
2016-12-13T04:23:00.549Z,50.78
2016-12-13T04:24:00.532Z,50.78
2016-12-13T04:25:00.516Z,50.78
2016-12-13T04:26:00.501Z,50.78
2016-12-13T04:27:00.483Z,50.59
2016-12-13T04:28:00.475Z,50.59
2016-12-13T04:29:00.447Z,50.87
2016-12-13T04:30:00.432Z,50.49
2016-12-13T04:31:00.415Z,50.4
2016-12-13T04:32:00.397Z,50.59
2016-12-13T04:33:00.382Z,50.59
2016-12-13T04:34:00.371Z,50.49
2016-12-13T04:35:00.034Z,50.78
2016-12-13T04:36:00.333Z,50.59
2016-12-13T04:37:00.323Z,50.87
2016-12-13T04:38:00.302Z,50.68
2016-12-13T04:39:00.285Z,50.49
2016-12-13T04:40:00.264Z,50.78
2016-12-13T04:41:00.248Z,50.68
2016-12-13T04:42:00.236Z,50.49
2016-12-13T04:43:00.216Z,50.68
2016-12-13T04:44:00.203Z,50.87
2016-12-13T04:45:00.186Z,50.68
2016-12-13T04:46:00.171Z,50.87
2016-12-13T04:47:00.151Z,50.87
2016-12-13T04:48:00.136Z,50.87
2016-12-13T04:49:00.115Z,50.87
2016-12-13T04:50:00.110Z,50.87
2016-12-13T04:51:00.086Z,50.87
2016-12-13T04:52:00.067Z,50.78
2016-12-13T04:53:00.053Z,50.78
2016-12-13T04:54:00.034Z,50.78
2016-12-13T04:55:00.025Z,51.26
2016-12-13T04:56:00.005Z,51.45
2016-12-13T04:56:59.987Z,51.26
2016-12-13T04:57:59.651Z,51.17
2016-12-13T04:58:59.952Z,51.07
2016-12-13T04:59:59.937Z,51.26
2016-12-13T05:00:59.920Z,51.07
2016-12-13T05:01:59.903Z,51.26
2016-12-13T05:02:59.887Z,51.17
2016-12-13T05:03:59.871Z,51.07
2016-12-13T05:04:59.855Z,51.84
2016-12-13T05:05:59.522Z,51.84
2016-12-13T05:06:59.819Z,50.97
2016-12-13T05:07:59.801Z,51.17
2016-12-13T05:08:59.781Z,50.78
2016-12-13T05:09:59.767Z,50.59
2016-12-13T05:10:59.752Z,51.09
2016-12-13T05:11:59.736Z,50.32
2016-12-13T05:12:59.717Z,50.42
2016-12-13T05:13:59.702Z,50.61
2016-12-13T05:14:59.694Z,50.13
2016-12-13T05:15:59.667Z,50.04
2016-12-13T05:16:59.658Z,50.04
2016-12-13T05:17:59.635Z,50.15
2016-12-13T05:18:59.307Z,50.15
2016-12-13T05:19:59.605Z,49.68
2016-12-13T05:20:59.585Z,50.06
2016-12-13T05:21:59.574Z,50.06
2016-12-13T05:22:59.237Z,50.06
2016-12-13T05:23:59.540Z,50.06
2016-12-13T05:24:59.518Z,49.96
2016-12-13T05:25:59.506Z,49.87
2016-12-13T05:26:59.174Z,50.06
2016-12-13T05:27:59.469Z,49.87
2016-12-13T05:28:59.456Z,50.06
2016-12-13T05:29:59.436Z,49.87
2016-12-13T05:30:59.428Z,49.77
2016-12-13T05:31:59.408Z,49.87
2016-12-13T05:32:59.389Z,50.06
2016-12-13T05:33:59.401Z,50.06
2016-12-13T05:34:59.363Z,50.06
2016-12-13T05:35:59.029Z,49.96
2016-12-13T05:36:59.327Z,49.96
2016-12-13T05:37:59.305Z,49.87
2016-12-13T05:38:59.291Z,50.06
2016-12-13T05:39:59.273Z,49.96
2016-12-13T05:40:59.257Z,50.06
2016-12-13T05:41:59.246Z,49.96
2016-12-13T05:42:59.224Z,49.96
2016-12-13T05:43:59.212Z,50.06
2016-12-13T05:44:59.194Z,49.87
2016-12-13T05:45:58.861Z,50.06
2016-12-13T05:46:59.163Z,49.68
2016-12-13T05:47:59.145Z,50.06
2016-12-13T05:48:59.127Z,49.96
2016-12-13T05:49:59.111Z,49.77
2016-12-13T05:50:59.105Z,49.68
2016-12-13T05:51:59.080Z,49.87
2016-12-13T05:52:59.063Z,50.06
2016-12-13T05:53:59.047Z,49.7
2016-12-13T05:54:59.032Z,49.77
2016-12-13T05:55:59.013Z,49.7
2016-12-13T05:56:58.680Z,49.89
2016-12-13T05:57:58.673Z,49.58
2016-12-13T05:58:58.963Z,49.6
2016-12-13T05:59:58.949Z,49.6
2016-12-13T06:00:58.933Z,49.6
2016-12-13T06:01:58.915Z,49.7
2016-12-13T06:02:58.583Z,50.25
2016-12-13T06:03:58.884Z,49.79
2016-12-13T06:04:58.556Z,49.89
2016-12-13T06:05:58.848Z,49.79
2016-12-13T06:06:58.835Z,50.09
2016-12-13T06:07:58.816Z,49.89
2016-12-13T06:08:58.805Z,49.6
2016-12-13T06:09:58.789Z,49.41
2016-12-13T06:10:58.452Z,49.7
2016-12-13T06:11:58.755Z,49.89
2016-12-13T06:12:58.760Z,49.79
2016-12-13T06:13:58.719Z,49.89
2016-12-13T06:14:58.388Z,49.89
2016-12-13T06:15:58.686Z,49.79
2016-12-13T06:16:58.677Z,49.79
2016-12-13T06:17:58.658Z,48.83
2016-12-13T06:18:58.641Z,48.83
2016-12-13T06:19:58.627Z,48.44
2016-12-13T06:20:58.607Z,47.27
2016-12-13T06:21:58.593Z,47.77
2016-12-13T06:22:58.574Z,47.17
2016-12-13T06:23:58.245Z,47.77
2016-12-13T06:24:58.550Z,46.31
2016-12-13T06:25:58.214Z,47.36
2016-12-13T06:26:58.509Z,47.56
2016-12-13T06:27:58.497Z,48.13
2016-12-13T06:28:58.476Z,48.64
2016-12-13T06:29:58.466Z,48.44
2016-12-13T06:30:58.445Z,48.44
2016-12-13T06:31:58.117Z,48.74
2016-12-13T06:32:58.412Z,48.35
2016-12-13T06:33:58.405Z,48.64
2016-12-13T06:34:58.381Z,48.74
2016-12-13T06:35:58.371Z,48.64
2016-12-13T06:36:58.034Z,48.64
2016-12-13T06:37:58.334Z,48.74
2016-12-13T06:38:58.000Z,48.74
2016-12-13T06:39:58.326Z,48.74
2016-12-13T06:40:58.288Z,48.64
2016-12-13T06:41:58.275Z,48.64
2016-12-13T06:42:58.258Z,48.64
2016-12-13T06:43:58.237Z,48.64
2016-12-13T06:44:58.221Z,48.74
2016-12-13T06:45:57.889Z,48.64
2016-12-13T06:46:58.189Z,48.93
2016-12-13T06:47:58.172Z,48.74
2016-12-13T06:48:58.158Z,48.93
2016-12-13T06:49:58.141Z,48.93
2016-12-13T06:50:58.122Z,48.83
2016-12-13T06:51:58.107Z,48.93
2016-12-13T06:52:57.776Z,48.83
2016-12-13T06:53:58.074Z,48.83
2016-12-13T06:54:57.994Z,49.02
2016-12-13T06:55:58.040Z,48.83
2016-12-13T06:56:58.029Z,49.32
2016-12-13T06:57:58.013Z,49.32
2016-12-13T06:58:57.994Z,49.41
2016-12-13T06:59:57.982Z,49.12
2016-12-13T07:00:57.965Z,49.51
2016-12-13T07:01:57.943Z,49.51
2016-12-13T07:02:57.930Z,49.7
2016-12-13T07:03:57.914Z,49.41
2016-12-13T07:04:57.897Z,49.12
2016-12-13T07:05:57.568Z,49.79
2016-12-13T07:06:57.869Z,49.32
2016-12-13T07:07:57.850Z,49.41
2016-12-13T07:08:57.840Z,49.32
2016-12-13T07:09:57.819Z,49.32
2016-12-13T07:10:57.489Z,49.32
2016-12-13T07:11:57.787Z,49.51
2016-12-13T07:12:57.772Z,49.41
2016-12-13T07:13:57.752Z,49.7
2016-12-13T07:14:57.739Z,49.6
2016-12-13T07:15:57.721Z,49.51
2016-12-13T07:16:57.391Z,49.41
2016-12-13T07:17:57.692Z,49.51
2016-12-13T07:18:57.676Z,49.41
2016-12-13T07:19:57.345Z,49.6
2016-12-13T07:20:57.644Z,49.32
2016-12-13T07:21:57.625Z,49.32
2016-12-13T07:22:57.611Z,49.41
2016-12-13T07:23:57.594Z,49.22
2016-12-13T07:24:57.579Z,49.41
2016-12-13T07:25:57.562Z,49.7
2016-12-13T07:26:57.549Z,49.32
2016-12-13T07:27:57.214Z,49.41
2016-12-13T07:28:57.517Z,49.7
2016-12-13T07:29:57.504Z,49.79
2016-12-13T07:30:57.485Z,49.79
2016-12-13T07:31:57.467Z,49.6
2016-12-13T07:32:57.138Z,49.41
2016-12-13T07:33:57.437Z,49.6
2016-12-13T07:34:57.417Z,49.22
2016-12-13T07:35:57.090Z,49.22
2016-12-13T07:36:57.405Z,49.7
2016-12-13T07:37:57.369Z,49.41
2016-12-13T07:38:57.357Z,49.41
2016-12-13T07:39:57.336Z,49.34
2016-12-13T07:40:57.326Z,49.32
2016-12-13T07:41:56.995Z,49.32
2016-12-13T07:42:56.974Z,49.53
2016-12-13T07:43:57.277Z,47.29
2016-12-13T07:44:57.261Z,45.56
2016-12-13T07:45:57.248Z,45.99
2016-12-13T07:46:56.918Z,47.1
2016-12-13T07:47:57.216Z,47.68
2016-12-13T07:48:57.199Z,48.47
2016-12-13T07:49:56.867Z,48.49
2016-12-13T07:50:57.164Z,48.13
2016-12-13T07:51:57.156Z,48.71
2016-12-13T07:52:57.138Z,48.71
2016-12-13T07:53:56.801Z,48.74
2016-12-13T07:54:57.107Z,48.64
2016-12-13T07:55:57.086Z,48.83
2016-12-13T07:56:57.070Z,48.74
2016-12-13T07:57:57.053Z,48.74
2016-12-13T07:58:56.720Z,48.93
2016-12-13T07:59:57.024Z,49.02
2016-12-13T08:00:57.010Z,48.74
2016-12-13T08:01:56.990Z,48.93
2016-12-13T08:02:56.978Z,49.12
2016-12-13T08:03:56.958Z,48.93
2016-12-13T08:04:56.950Z,48.93
2016-12-13T08:05:56.930Z,49.02
2016-12-13T08:06:56.914Z,48.83
2016-12-13T08:07:56.893Z,49.02
2016-12-13T08:08:56.875Z,48.93
2016-12-13T08:09:56.865Z,49.02
2016-12-13T08:10:56.845Z,48.83
2016-12-13T08:11:56.829Z,49.22
2016-12-13T08:12:56.816Z,48.83
2016-12-13T08:13:56.483Z,48.93
2016-12-13T08:14:56.785Z,48.93
2016-12-13T08:15:56.765Z,48.93
2016-12-13T08:16:56.753Z,49.02
2016-12-13T08:17:56.734Z,49.12
2016-12-13T08:18:56.719Z,48.93
2016-12-13T08:19:56.387Z,49.12
2016-12-13T08:20:56.686Z,49.12
2016-12-13T08:21:56.675Z,49.05
2016-12-13T08:22:56.655Z,49.05
2016-12-13T08:23:56.639Z,49.12
2016-12-13T08:24:56.307Z,49.02
2016-12-13T08:25:56.608Z,49.32
2016-12-13T08:26:56.277Z,49.32
2016-12-13T08:27:56.582Z,49.22
2016-12-13T08:28:56.559Z,49.22
2016-12-13T08:29:56.541Z,49.22
2016-12-13T08:30:56.524Z,49.24
2016-12-13T08:31:56.513Z,49.05
2016-12-13T08:32:56.497Z,49.12
2016-12-13T08:33:56.477Z,49.15
2016-12-13T08:34:56.461Z,49.24
2016-12-13T08:35:56.448Z,49.32
2016-12-13T08:36:56.435Z,49.32
2016-12-13T08:37:56.416Z,49.15
2016-12-13T08:38:56.084Z,49.02
2016-12-13T08:39:56.391Z,49.22
2016-12-13T08:40:56.366Z,49.15
2016-12-13T08:41:56.355Z,49.32
2016-12-13T08:42:56.347Z,49.43
2016-12-13T08:43:56.318Z,49.24
2016-12-13T08:44:55.987Z,49.05
2016-12-13T08:45:56.289Z,49.12
2016-12-13T08:46:56.270Z,49.05
2016-12-13T08:47:56.256Z,49.02
2016-12-13T08:48:56.242Z,48.74
2016-12-13T08:49:56.233Z,49.34
2016-12-13T08:50:56.208Z,49.12
2016-12-13T08:51:56.193Z,49.24
2016-12-13T08:52:56.191Z,49.12
2016-12-13T08:53:56.164Z,49.22
2016-12-13T08:54:56.150Z,49.34
2016-12-13T08:55:56.182Z,49.34
2016-12-13T08:56:56.115Z,49.02
2016-12-13T08:57:56.103Z,48.83
2016-12-13T08:58:56.080Z,49.32
2016-12-13T08:59:56.071Z,49.41
2016-12-13T09:00:56.050Z,49.24
2016-12-13T09:01:56.043Z,49.15
2016-12-13T09:02:56.019Z,49.41
2016-12-13T09:03:56.006Z,49.32
2016-12-13T09:04:55.989Z,49.05
2016-12-13T09:05:55.970Z,49.05
2016-12-13T09:06:55.959Z,49.05
2016-12-13T09:07:55.939Z,49.24
2016-12-13T09:08:55.924Z,49.34
2016-12-13T09:09:55.907Z,48.95
2016-12-13T09:10:55.898Z,49.05
2016-12-13T09:11:55.874Z,49.05
2016-12-13T09:12:55.867Z,49.05
2016-12-13T09:13:55.844Z,49.24
2016-12-13T09:14:55.834Z,49.05
2016-12-13T09:15:55.811Z,49.24
2016-12-13T09:16:55.798Z,48.95
2016-12-13T09:17:55.821Z,49.15
2016-12-13T09:18:55.764Z,48.86
2016-12-13T09:19:55.759Z,49.34
2016-12-13T09:20:55.735Z,49.05
2016-12-13T09:21:55.404Z,48.95
2016-12-13T09:22:55.703Z,48.95
2016-12-13T09:23:55.686Z,48.95
2016-12-13T09:24:55.721Z,48.95
2016-12-13T09:25:55.652Z,48.86
2016-12-13T09:26:55.638Z,49.05
2016-12-13T09:27:55.630Z,49.34
2016-12-13T09:28:55.612Z,49.34
2016-12-13T09:29:55.599Z,49.15
2016-12-13T09:30:55.575Z,49.24
2016-12-13T09:31:55.247Z,49.05
2016-12-13T09:32:55.546Z,49.24
2016-12-13T09:33:55.531Z,49.05
2016-12-13T09:34:55.513Z,49.05
2016-12-13T09:35:55.504Z,49.05
2016-12-13T09:36:55.483Z,48.95
2016-12-13T09:37:55.465Z,49.05
2016-12-13T09:38:55.447Z,48.86
2016-12-13T09:39:55.119Z,49.15
2016-12-13T09:40:55.423Z,48.86
2016-12-13T09:41:55.087Z,48.86
2016-12-13T09:42:55.388Z,48.86
2016-12-13T09:43:55.058Z,48.86
2016-12-13T09:44:55.357Z,48.86
2016-12-13T09:45:55.340Z,48.83
2016-12-13T09:46:55.323Z,48.66
2016-12-13T09:47:55.309Z,48.76
2016-12-13T09:48:54.982Z,48.66
2016-12-13T09:49:55.278Z,48.57
2016-12-13T09:50:55.257Z,48.86
2016-12-13T09:51:55.244Z,48.76
2016-12-13T09:52:55.230Z,48.95
2016-12-13T09:53:55.212Z,48.66
2016-12-13T09:54:55.199Z,48.76
2016-12-13T09:56:19.272Z,48.76
2016-12-13T09:56:54.852Z,48.66
2016-12-13T09:57:55.151Z,48.66
2016-12-13T09:58:55.133Z,48.76
2016-12-13T09:59:55.123Z,48.86
2016-12-13T10:00:55.101Z,48.47
2016-12-13T10:01:55.090Z,48.66
2016-12-13T10:02:54.755Z,48.47
2016-12-13T10:03:55.061Z,48.66
2016-12-13T10:04:55.040Z,48.57
2016-12-13T10:05:55.031Z,48.47
2016-12-13T10:06:55.008Z,48.76
2016-12-13T10:07:54.994Z,48.76
2016-12-13T10:08:54.663Z,48.66
2016-12-13T10:09:54.968Z,48.76
2016-12-13T10:10:54.951Z,48.76
2016-12-13T10:11:54.612Z,48.66
2016-12-13T10:12:54.918Z,48.76
2016-12-13T10:13:54.898Z,48.57
2016-12-13T10:14:54.570Z,48.38
2016-12-13T10:15:54.551Z,48.76
2016-12-13T10:16:54.852Z,48.28
2016-12-13T10:17:54.835Z,48.57
2016-12-13T10:18:54.818Z,48.66
2016-12-13T10:19:54.828Z,48.76
2016-12-13T10:20:54.475Z,48.57
2016-12-13T10:21:54.772Z,48.57
2016-12-13T10:22:54.757Z,48.66
2016-12-13T10:23:54.425Z,48.57
2016-12-13T10:24:54.724Z,48.57
2016-12-13T10:25:54.394Z,48.76
2016-12-13T10:26:54.694Z,48.47
2016-12-13T10:27:54.677Z,48.47
2016-12-13T10:28:54.345Z,48.18
2016-12-13T10:29:54.653Z,48.66
2016-12-13T10:30:54.633Z,48.66
2016-12-13T10:31:54.616Z,48.57
2016-12-13T10:32:54.600Z,48.57
2016-12-13T10:33:54.267Z,48.66
2016-12-13T10:34:54.594Z,48.66
2016-12-13T10:35:54.237Z,48.66
2016-12-13T10:36:54.545Z,48.95
2016-12-13T10:37:54.517Z,48.57
2016-12-13T10:38:54.505Z,48.47
2016-12-13T10:39:54.492Z,48.47
2016-12-13T10:40:54.476Z,48.76
2016-12-13T10:41:54.454Z,48.66
2016-12-13T10:42:54.440Z,48.66
2016-12-13T10:43:54.425Z,48.76
2016-12-13T10:44:54.412Z,48.66
2016-12-13T10:45:54.400Z,48.66
2016-12-13T10:46:54.378Z,48.66
2016-12-13T10:47:54.360Z,48.57
2016-12-13T10:48:54.344Z,48.66
2016-12-13T10:49:54.328Z,48.66
2016-12-13T10:50:53.997Z,48.86
2016-12-13T10:51:54.310Z,48.66
2016-12-13T10:52:54.819Z,48.66
2016-12-13T10:53:53.951Z,48.76
2016-12-13T10:54:53.936Z,49.15
2016-12-13T10:55:54.235Z,48.95
2016-12-13T10:56:54.221Z,48.76
2016-12-13T10:57:53.891Z,48.66
2016-12-13T10:58:54.188Z,48.86
2016-12-13T10:59:54.176Z,48.95
2016-12-13T11:00:54.163Z,48.95
2016-12-13T11:01:53.832Z,48.66
2016-12-13T11:02:54.127Z,48.76
2016-12-13T11:03:54.112Z,49.15
2016-12-13T11:04:54.098Z,48.76
2016-12-13T11:05:53.767Z,48.95
2016-12-13T11:06:54.062Z,48.95
2016-12-13T11:07:54.049Z,48.95
2016-12-13T11:08:54.032Z,48.66
2016-12-13T11:09:54.021Z,48.86
2016-12-13T11:10:54.000Z,48.86
2016-12-13T11:11:53.668Z,48.66
2016-12-13T11:12:53.655Z,48.76
2016-12-13T11:13:53.956Z,48.86
2016-12-13T11:14:53.939Z,48.86
2016-12-13T11:15:53.929Z,48.86
2016-12-13T11:16:53.914Z,48.95
2016-12-13T11:17:53.895Z,48.95
2016-12-13T11:18:53.889Z,48.86
2016-12-13T11:19:53.545Z,48.95
2016-12-13T11:20:53.853Z,48.95
2016-12-13T11:21:53.834Z,48.76
2016-12-13T11:22:53.500Z,48.95
2016-12-13T11:23:53.799Z,48.76
2016-12-13T11:24:53.781Z,48.76
2016-12-13T11:25:53.449Z,48.76
2016-12-13T11:26:53.439Z,48.57
2016-12-13T11:27:53.746Z,48.66
2016-12-13T11:28:53.725Z,48.95
2016-12-13T11:29:53.701Z,48.95
2016-12-13T11:30:53.689Z,49.05
2016-12-13T11:31:53.356Z,48.95
2016-12-13T11:32:53.654Z,48.95
2016-12-13T11:33:53.645Z,48.86
2016-12-13T11:34:53.310Z,48.86
2016-12-13T11:35:53.608Z,49.15
2016-12-13T11:36:53.601Z,49.05
2016-12-13T11:37:53.578Z,49.05
2016-12-13T11:38:53.565Z,48.95
2016-12-13T11:39:53.545Z,48.86
2016-12-13T11:40:53.530Z,49.05
2016-12-13T11:41:53.521Z,49.05
2016-12-13T11:42:53.505Z,49.24
2016-12-13T11:43:53.486Z,49.05
2016-12-13T11:44:53.153Z,49.34
2016-12-13T11:45:53.135Z,49.43
2016-12-13T11:46:53.443Z,49.24
2016-12-13T11:47:53.105Z,49.43
2016-12-13T11:48:53.412Z,49.24
2016-12-13T11:49:53.071Z,49.15
2016-12-13T11:50:53.369Z,49.05
2016-12-13T11:51:53.044Z,49.05
2016-12-13T11:52:53.339Z,49.15
2016-12-13T11:53:53.327Z,49.15
2016-12-13T11:54:53.309Z,48.95
2016-12-13T11:55:53.300Z,49.05
2016-12-13T11:56:52.962Z,49.15
2016-12-13T11:57:53.263Z,49.15
2016-12-13T11:58:52.931Z,49.05
2016-12-13T11:59:53.233Z,49.05
2016-12-13T12:00:53.214Z,49.34
2016-12-13T12:01:53.198Z,48.95
2016-12-13T12:02:53.193Z,49.05
2016-12-13T12:03:53.177Z,49.34
2016-12-13T12:04:53.154Z,49.43
2016-12-13T12:05:53.139Z,49.24
2016-12-13T12:06:53.120Z,49.05
2016-12-13T12:07:53.106Z,49.43
2016-12-13T12:08:52.782Z,49.43
2016-12-13T12:09:53.071Z,49.43
2016-12-13T12:10:53.060Z,49.05
2016-12-13T12:11:53.049Z,49.15
2016-12-13T12:12:53.033Z,49.43
2016-12-13T12:13:53.967Z,49.43
2016-12-13T12:14:53.003Z,49.24
2016-12-13T12:15:52.982Z,49.24
2016-12-13T12:16:52.969Z,49.34
2016-12-13T12:17:52.963Z,49.43
2016-12-13T12:18:52.946Z,49.34
2016-12-13T12:19:52.918Z,49.43
2016-12-13T12:20:52.900Z,49.24
2016-12-13T12:21:52.570Z,48.76
2016-12-13T12:22:52.871Z,49.34
2016-12-13T12:23:52.536Z,49.34
2016-12-13T12:24:52.839Z,48.95
2016-12-13T12:25:52.824Z,49.15
2016-12-13T12:26:52.495Z,49.15
2016-12-13T12:27:52.792Z,49.24
2016-12-13T12:28:52.781Z,49.43
2016-12-13T12:29:52.759Z,49.15
2016-12-13T12:30:52.776Z,48.76
2016-12-13T12:31:52.728Z,49.05
2016-12-13T12:32:52.713Z,49.05
2016-12-13T12:33:52.698Z,49.15
2016-12-13T12:34:52.681Z,49.05
2016-12-13T12:35:52.668Z,48.86
2016-12-13T12:36:52.650Z,48.86
2016-12-13T12:37:52.664Z,49.05
2016-12-13T12:38:52.624Z,49.05
2016-12-13T12:39:52.605Z,48.76
2016-12-13T12:40:52.589Z,49.24
2016-12-13T12:41:52.576Z,48.86
2016-12-13T12:42:52.565Z,49.15
2016-12-13T12:43:52.546Z,48.86
2016-12-13T12:44:52.210Z,49.15
2016-12-13T12:45:52.511Z,49.24
2016-12-13T12:46:52.494Z,49.24
2016-12-13T12:47:52.481Z,49.24
2016-12-13T12:48:52.463Z,49.53
2016-12-13T12:49:52.449Z,49.15
2016-12-13T12:50:52.433Z,49.53
2016-12-13T12:51:52.098Z,49.43
2016-12-13T12:52:52.403Z,49.53
2016-12-13T12:53:52.073Z,49.43
2016-12-13T12:54:52.366Z,49.43